Time;durP1;ratioP1;P1;durP2;ratioP2;P2;SDS_P1;SDS_P2;PMS_P1;PMS_P2;Temp;Humidity;BMP_temperature;BMP_pressure;BME280_temperature;BME280_humidity;BME280_pressure;Samples;Min_cycle;Max_cycle;Signal;HPM_P1;HPM_P2
2022/04/01 00:00:44;;;;;;;17.23;11.85;;;7.10;99.90;;;;;;5060934;28;20016;-80
2022/04/01 00:03:10;;;;;;;13.82;10.30;;;7.00;99.90;;;;;;5067888;28;20163;-81
2022/04/01 00:05:39;;;;;;;15.13;11.25;;;7.00;99.90;;;;;;5061702;28;20021;-83
2022/04/01 00:08:05;;;;;;;15.50;11.15;;;7.00;99.90;;;;;;5046135;28;20029;-81
2022/04/01 00:10:30;;;;;;;14.70;11.15;;;7.00;99.90;;;;;;5044240;28;20088;-81
2022/04/01 00:12:56;;;;;;;15.20;11.35;;;7.00;99.90;;;;;;5055624;28;20118;-82
2022/04/01 00:15:22;;;;;;;13.85;10.15;;;6.90;99.90;;;;;;5023726;28;20256;-82
2022/04/01 00:17:48;;;;;;;14.98;9.82;;;6.90;99.90;;;;;;5041372;28;20394;-82
2022/04/01 00:20:14;;;;;;;13.48;9.05;;;7.00;99.90;;;;;;5023631;28;20454;-81
2022/04/01 00:22:41;;;;;;;11.05;8.90;;;7.00;99.90;;;;;;5042111;28;20097;-83
2022/04/01 00:25:07;;;;;;;12.25;8.32;;;7.10;99.90;;;;;;5035257;28;20033;-81
2022/04/01 00:27:33;;;;;;;8.57;6.15;;;7.10;99.90;;;;;;5060855;28;20418;-83
2022/04/01 00:29:59;;;;;;;5.38;4.55;;;7.10;99.90;;;;;;5044648;28;20112;-82
2022/04/01 00:32:25;;;;;;;5.45;4.68;;;7.00;99.90;;;;;;5044081;28;20029;-82
2022/04/01 00:34:51;;;;;;;4.18;3.78;;;6.90;99.90;;;;;;5052631;28;20075;-82
2022/04/01 00:37:18;;;;;;;4.72;3.95;;;6.90;99.90;;;;;;5051456;28;20092;-81
2022/04/01 00:39:44;;;;;;;4.10;3.70;;;6.80;99.90;;;;;;5029859;28;20033;-82
2022/04/01 00:42:10;;;;;;;4.25;3.60;;;6.70;99.90;;;;;;5036619;28;20025;-81
2022/04/01 00:44:38;;;;;;;4.15;3.67;;;6.70;99.90;;;;;;5030447;28;20036;-81
2022/04/01 00:47:09;;;;;;;5.47;4.22;;;6.70;99.90;;;;;;5033050;28;20023;-81
2022/04/01 00:49:36;;;;;;;4.53;3.88;;;6.80;99.90;;;;;;5038129;28;20037;-82
2022/04/01 00:52:04;;;;;;;5.65;3.38;;;6.70;99.90;;;;;;5039545;28;20044;-82
2022/04/01 00:54:31;;;;;;;3.90;3.50;;;6.70;99.90;;;;;;5039763;28;20490;-81
2022/04/01 00:56:57;;;;;;;3.85;3.45;;;6.60;99.90;;;;;;5040598;28;20025;-81
2022/04/01 00:59:24;;;;;;;4.70;3.67;;;6.70;99.90;;;;;;5039743;28;20090;-82
2022/04/01 01:01:50;;;;;;;4.10;3.40;;;6.70;99.90;;;;;;5047354;28;20021;-81
2022/04/01 01:04:19;;;;;;;4.50;3.25;;;6.60;99.90;;;;;;5060632;28;20025;-80
2022/04/01 01:06:48;;;;;;;3.47;3.00;;;6.70;99.90;;;;;;5060124;28;20029;-81
2022/04/01 01:09:14;;;;;;;4.28;3.53;;;6.60;99.90;;;;;;5057911;28;20032;-81
2022/04/01 01:11:41;;;;;;;3.05;2.75;;;6.60;99.90;;;;;;5061952;28;20025;-81
2022/04/01 01:14:09;;;;;;;3.35;2.95;;;6.60;99.90;;;;;;5052754;28;20028;-81
2022/04/01 01:16:36;;;;;;;4.82;4.28;;;6.60;99.90;;;;;;5061064;28;20453;-81
2022/04/01 01:19:12;;;;;;;5.18;3.85;;;6.60;99.90;;;;;;5042032;28;20032;-82
2022/04/01 01:21:39;;;;;;;4.25;3.85;;;6.60;99.90;;;;;;5060566;28;20025;-82
2022/04/01 01:24:14;;;;;;;3.15;2.85;;;6.60;99.90;;;;;;5043614;28;20029;-80
2022/04/01 01:26:44;;;;;;;3.70;3.38;;;6.60;99.90;;;;;;5042011;28;20021;-82
2022/04/01 01:29:10;;;;;;;4.18;3.67;;;6.60;99.90;;;;;;5042122;28;20360;-82
2022/04/01 01:31:36;;;;;;;4.57;3.60;;;6.60;99.90;;;;;;5051287;28;20021;-80
2022/04/01 01:34:02;;;;;;;4.75;3.90;;;6.50;99.90;;;;;;5069499;28;20029;-80
2022/04/01 01:36:30;;;;;;;4.25;3.75;;;6.60;99.90;;;;;;5076345;28;20096;-80
2022/04/01 01:38:56;;;;;;;5.55;3.60;;;6.50;99.90;;;;;;5058802;28;20055;-80
2022/04/01 01:41:23;;;;;;;4.28;3.63;;;6.50;99.90;;;;;;5060783;28;20033;-83
2022/04/01 01:43:49;;;;;;;5.22;4.45;;;6.60;99.90;;;;;;5054494;28;20033;-82
2022/04/01 01:46:15;;;;;;;5.57;4.20;;;6.50;99.90;;;;;;5041470;28;20039;-82
2022/04/01 01:48:41;;;;;;;4.65;4.20;;;6.50;99.90;;;;;;5057670;28;20481;-81
2022/04/01 01:56:36;;;;;;;5.40;4.45;;;6.50;99.90;;;;;;5040265;28;20362;-81
2022/04/01 01:59:03;;;;;;;5.75;4.07;;;6.40;99.90;;;;;;5020802;28;20088;-81
2022/04/01 02:01:28;;;;;;;5.43;4.50;;;6.50;99.90;;;;;;5042158;28;20033;-81
2022/04/01 02:03:54;;;;;;;6.65;4.95;;;6.40;99.90;;;;;;5049542;28;20032;-81
2022/04/01 02:06:23;;;;;;;5.20;4.47;;;6.40;99.90;;;;;;5065191;28;20036;-81
2022/04/01 02:08:50;;;;;;;7.50;5.15;;;6.40;99.90;;;;;;5058806;28;20033;-82
2022/04/01 02:11:17;;;;;;;8.52;5.28;;;6.40;99.90;;;;;;5034501;28;20076;-81
2022/04/01 02:13:45;;;;;;;7.07;4.97;;;6.50;99.90;;;;;;5049729;28;20025;-81
2022/04/01 02:16:10;;;;;;;6.30;5.05;;;6.50;99.90;;;;;;5038551;28;20032;-82
2022/04/01 02:18:36;;;;;;;6.72;5.18;;;6.50;99.90;;;;;;5020685;28;20474;-82
2022/04/01 02:21:02;;;;;;;6.45;4.70;;;6.50;99.90;;;;;;5042214;28;20096;-81
2022/04/01 02:23:28;;;;;;;8.02;5.45;;;6.40;99.90;;;;;;5044049;28;20022;-81
2022/04/01 02:25:54;;;;;;;6.53;5.07;;;6.40;99.90;;;;;;5059473;28;20093;-81
2022/04/01 02:28:21;;;;;;;6.95;4.97;;;6.40;99.90;;;;;;5063511;28;20068;-80
2022/04/01 02:30:47;;;;;;;7.00;5.38;;;6.30;99.90;;;;;;5063275;28;20469;-81
2022/04/01 02:33:12;;;;;;;7.22;5.22;;;6.30;99.90;;;;;;5045493;28;20158;-81
2022/04/01 02:35:38;;;;;;;12.45;5.30;;;6.30;99.90;;;;;;5046781;28;20492;-82
2022/04/01 02:38:04;;;;;;;6.00;3.53;;;6.40;99.90;;;;;;5063401;28;20496;-81
2022/04/01 02:40:29;;;;;;;5.38;3.38;;;6.30;99.90;;;;;;5074620;28;20025;-80
2022/04/01 02:42:58;;;;;;;3.63;2.90;;;6.20;99.90;;;;;;5068416;28;20022;-81
2022/04/01 02:45:24;;;;;;;4.20;3.03;;;6.10;99.90;;;;;;5059545;28;20043;-81
2022/04/01 02:47:50;;;;;;;3.15;2.60;;;6.00;99.90;;;;;;5046801;28;20397;-81
2022/04/01 02:50:16;;;;;;;4.30;2.80;;;5.90;99.90;;;;;;5046371;28;20029;-81
2022/04/01 02:52:42;;;;;;;3.97;3.17;;;5.80;99.90;;;;;;5065648;28;20414;-81
2022/04/01 02:55:09;;;;;;;2.78;2.45;;;5.80;99.90;;;;;;5047224;28;20047;-82
2022/04/01 02:57:34;;;;;;;3.08;2.78;;;5.70;99.90;;;;;;5042694;28;20113;-83
2022/04/01 03:00:00;;;;;;;3.15;2.85;;;5.60;99.90;;;;;;5044301;28;20028;-82
2022/04/01 03:02:26;;;;;;;3.03;2.72;;;5.60;99.90;;;;;;5024502;28;20422;-82
2022/04/01 03:04:52;;;;;;;2.83;2.35;;;5.60;99.90;;;;;;5025503;28;20042;-81
2022/04/01 03:07:18;;;;;;;3.13;2.60;;;5.60;99.90;;;;;;5039820;28;20039;-82
2022/04/01 03:09:44;;;;;;;2.38;2.17;;;5.50;99.90;;;;;;5063595;28;20112;-82
2022/04/01 03:12:11;;;;;;;2.17;1.92;;;5.50;99.90;;;;;;5062739;28;20121;-82
2022/04/01 03:14:37;;;;;;;2.75;2.28;;;5.50;99.90;;;;;;5061233;28;20552;-82
2022/04/01 03:17:03;;;;;;;2.72;2.08;;;5.50;99.90;;;;;;5054192;28;20037;-82
2022/04/01 03:19:29;;;;;;;2.00;1.88;;;5.40;99.90;;;;;;5041505;28;20017;-83
2022/04/01 03:21:55;;;;;;;2.38;2.10;;;5.40;99.90;;;;;;5024877;28;20049;-83
2022/04/01 03:24:21;;;;;;;2.58;2.05;;;5.40;99.90;;;;;;5042561;28;20044;-82
2022/04/01 03:26:47;;;;;;;2.00;1.80;;;5.40;99.90;;;;;;5030273;28;20315;-83
2022/04/01 03:29:12;;;;;;;2.00;1.90;;;5.40;99.90;;;;;;5045756;28;20512;-82
2022/04/01 03:31:40;;;;;;;2.35;2.00;;;5.30;99.90;;;;;;5042440;28;20025;-82
2022/04/01 03:34:06;;;;;;;2.10;1.73;;;5.30;99.90;;;;;;5062790;28;20096;-81
2022/04/01 03:36:33;;;;;;;1.83;1.73;;;5.30;99.90;;;;;;5063169;28;20021;-82
2022/04/01 03:39:01;;;;;;;3.30;1.52;;;5.20;99.90;;;;;;5038292;28;20024;-79
2022/04/01 03:41:30;;;;;;;1.73;1.63;;;5.20;99.90;;;;;;5060702;28;20083;-82
2022/04/01 03:43:55;;;;;;;2.38;1.73;;;5.20;99.90;;;;;;5055594;28;20040;-82
2022/04/01 03:46:24;;;;;;;2.60;2.35;;;5.20;99.90;;;;;;5063263;28;20025;-83
2022/04/01 03:49:01;;;;;;;1.95;1.70;;;5.10;99.90;;;;;;5031871;28;20037;-81
2022/04/01 03:51:29;;;;;;;1.92;1.80;;;5.10;99.90;;;;;;5035971;28;20033;-83
2022/04/01 03:54:02;;;;;;;1.83;1.73;;;5.00;99.90;;;;;;5090066;22;20507;-81
2022/04/01 03:56:36;;;;;;;2.35;2.00;;;5.00;99.90;;;;;;5102049;28;20032;-81
2022/04/01 03:59:05;;;;;;;2.13;1.95;;;4.90;99.90;;;;;;5086905;28;20092;-81
2022/04/01 04:01:31;;;;;;;2.90;1.85;;;4.90;99.90;;;;;;5081746;28;20025;-80
2022/04/01 04:03:58;;;;;;;1.90;1.80;;;4.80;99.90;;;;;;5085156;28;20032;-81
2022/04/01 04:06:25;;;;;;;2.30;2.10;;;4.80;99.90;;;;;;5066680;28;20025;-81
2022/04/01 04:08:58;;;;;;;1.95;1.85;;;4.80;99.90;;;;;;5095369;28;20043;-81
2022/04/01 04:11:25;;;;;;;2.03;1.92;;;4.80;99.90;;;;;;5075216;28;20043;-81
2022/04/01 04:13:55;;;;;;;1.80;1.67;;;4.80;99.90;;;;;;5082623;28;20025;-81
2022/04/01 04:16:47;;;;;;;1.80;1.70;;;4.80;99.90;;;;;;5079225;28;20016;-81
2022/04/01 04:19:13;;;;;;;2.13;1.90;;;4.70;99.90;;;;;;5091843;28;20021;-81
2022/04/01 04:22:04;;;;;;;1.95;1.48;;;4.70;99.90;;;;;;5101539;28;20031;-82
2022/04/01 04:24:53;;;;;;;2.00;1.90;;;4.70;99.90;;;;;;5119091;28;20016;-82
2022/04/01 04:27:36;;;;;;;1.98;1.65;;;4.60;99.90;;;;;;5095518;28;20392;-83
2022/04/01 04:30:07;;;;;;;1.90;1.80;;;4.60;99.90;;;;;;5086350;28;20074;-81
2022/04/01 04:32:39;;;;;;;1.65;1.55;;;4.60;99.90;;;;;;5095724;28;20031;-84
2022/04/01 04:35:08;;;;;;;3.22;1.90;;;4.50;99.90;;;;;;5101113;28;20111;-86
2022/04/01 04:37:44;;;;;;;1.75;1.65;;;4.40;99.90;;;;;;5087796;28;20076;-86
2022/04/01 04:40:12;;;;;;;1.70;1.60;;;4.40;99.90;;;;;;5089538;28;20029;-81
2022/04/01 04:42:44;;;;;;;2.75;1.50;;;4.30;99.90;;;;;;5076711;28;20533;-82
2022/04/01 04:45:18;;;;;;;2.72;1.85;;;4.30;99.90;;;;;;5079376;28;20413;-81
2022/04/01 04:47:45;;;;;;;1.73;1.45;;;4.20;99.90;;;;;;5089040;28;20477;-83
2022/04/01 04:50:11;;;;;;;2.40;2.05;;;4.20;99.90;;;;;;5087231;28;20036;-82
2022/04/01 04:52:40;;;;;;;1.02;1.02;;;4.10;99.90;;;;;;5079976;28;20055;-83
2022/04/01 04:55:13;;;;;;;2.00;1.45;;;4.00;99.90;;;;;;5080669;28;20335;-81
2022/04/01 04:57:41;;;;;;;2.08;1.55;;;4.00;99.90;;;;;;5084429;28;20031;-82
2022/04/01 05:00:08;;;;;;;1.58;1.48;;;4.00;99.90;;;;;;5080079;28;20303;-81
2022/04/01 05:02:52;;;;;;;1.40;1.25;;;3.90;99.90;;;;;;5102088;28;20445;-81
2022/04/01 05:05:44;;;;;;;1.38;1.27;;;3.80;99.90;;;;;;5083019;28;20472;-79
2022/04/01 05:08:48;;;;;;;1.27;1.10;;;3.70;99.90;;;;;;5099824;28;20036;-78
2022/04/01 05:11:22;;;;;;;2.25;2.03;;;3.70;99.90;;;;;;5091750;28;20032;-80
2022/04/01 05:14:26;;;;;;;1.55;1.45;;;3.60;99.90;;;;;;5094118;28;20047;-79
2022/04/01 05:17:02;;;;;;;1.15;1.05;;;3.60;99.90;;;;;;5036928;28;20026;-81
2022/04/01 05:19:30;;;;;;;2.00;1.58;;;3.50;99.90;;;;;;5036026;28;20021;-79
2022/04/01 05:22:02;;;;;;;2.03;1.38;;;3.50;99.90;;;;;;5060030;28;20489;-80
2022/04/01 05:24:38;;;;;;;;;;;3.50;99.90;;;;;;5079092;28;20599;-80
2022/04/01 05:27:09;;;;;;;1.65;1.55;;;3.60;99.90;;;;;;5077801;28;19946;-80
2022/04/01 05:29:42;;;;;;;1.80;1.60;;;3.60;99.90;;;;;;5058042;28;20028;-80
2022/04/01 05:32:10;;;;;;;1.77;1.50;;;3.60;99.90;;;;;;5059326;28;20119;-79
2022/04/01 05:34:49;;;;;;;1.75;1.42;;;3.50;99.90;;;;;;5078507;28;20425;-79
2022/04/01 05:37:17;;;;;;;1.60;1.48;;;3.50;99.90;;;;;;5077353;28;20030;-79
2022/04/01 05:39:48;;;;;;;1.48;1.23;;;3.50;99.90;;;;;;5078173;28;20027;-80
2022/04/01 05:42:18;;;;;;;1.80;1.20;;;3.50;99.90;;;;;;5084840;28;20082;-80
2022/04/01 05:44:44;;;;;;;2.45;1.60;;;3.50;99.90;;;;;;5072346;28;20036;-80
2022/04/01 05:47:10;;;;;;;1.15;1.10;;;3.50;99.90;;;;;;5080338;28;20116;-80
2022/04/01 05:49:44;;;;;;;4.40;1.85;;;3.50;99.90;;;;;;5078020;28;20052;-81
2022/04/01 05:52:12;;;;;;;1.65;1.00;;;3.40;99.90;;;;;;5087017;28;20031;-80
2022/04/01 05:54:42;;;;;;;3.38;1.40;;;3.40;99.90;;;;;;5081378;28;20035;-81
2022/04/01 05:57:10;;;;;;;2.28;1.40;;;3.30;99.90;;;;;;5082662;28;20119;-80
2022/04/01 05:59:36;;;;;;;1.55;1.30;;;3.40;99.90;;;;;;5100249;28;20044;-80
2022/04/01 06:02:36;;;;;;;1.95;1.52;;;3.40;99.90;;;;;;5099993;28;20036;-80
2022/04/01 06:05:27;;;;;;;1.55;1.45;;;3.40;99.90;;;;;;5099191;28;20031;-82
2022/04/01 06:07:53;;;;;;;2.65;1.55;;;3.50;99.90;;;;;;5097633;28;20031;-80
2022/04/01 06:11:06;;;;;;;2.45;1.42;;;3.60;99.90;;;;;;5100525;28;20032;-80
2022/04/01 06:13:50;;;;;;;;;;;3.70;99.90;;;;;;5039315;28;20045;-78
2022/04/01 06:16:23;;;;;;;1.52;1.17;;;3.70;99.90;;;;;;5062785;28;19909;-80
2022/04/01 06:19:16;;;;;;;3.10;1.80;;;3.70;99.90;;;;;;5080594;28;20089;-80
2022/04/01 06:21:54;;;;;;;2.90;1.30;;;3.70;99.90;;;;;;5056492;28;20043;-80
2022/04/01 06:24:34;;;;;;;1.58;1.23;;;3.70;99.90;;;;;;5096385;28;20040;-81
2022/04/01 06:27:01;;;;;;;1.40;1.10;;;3.80;99.90;;;;;;5080961;28;20641;-80
2022/04/01 06:29:46;;;;;;;2.28;1.33;;;3.70;99.90;;;;;;5099333;28;20028;-80
2022/04/01 06:32:21;;;;;;;1.27;1.00;;;3.80;99.90;;;;;;5104780;28;20024;-80
2022/04/01 06:34:57;;;;;;;2.40;1.25;;;3.80;99.90;;;;;;5084688;28;20092;-80
2022/04/01 06:37:32;;;;;;;0.80;0.70;;;3.80;99.90;;;;;;5079601;28;20021;-80
2022/04/01 06:40:12;;;;;;;2.28;0.73;;;3.80;99.90;;;;;;5061518;28;20151;-80
2022/04/01 06:42:39;;;;;;;1.15;0.82;;;3.80;99.90;;;;;;5070777;28;20059;-81
2022/04/01 06:45:10;;;;;;;1.38;0.70;;;3.90;99.90;;;;;;5063404;28;20028;-78
2022/04/01 06:47:41;;;;;;;1.45;0.85;;;4.00;99.90;;;;;;5080375;28;20477;-80
2022/04/01 06:50:07;;;;;;;2.17;0.73;;;4.00;99.90;;;;;;5076178;28;20049;-79
2022/04/01 06:52:33;;;;;;;1.98;1.25;;;4.10;99.90;;;;;;5094100;28;20078;-81
2022/04/01 06:54:59;;;;;;;0.88;0.70;;;4.10;99.90;;;;;;5095773;28;20028;-79
2022/04/01 06:57:25;;;;;;;2.53;1.10;;;4.10;99.90;;;;;;5081966;28;20027;-78
2022/04/01 06:59:51;;;;;;;1.23;0.77;;;4.10;99.90;;;;;;5081811;28;20110;-81
2022/04/01 07:02:17;;;;;;;1.20;0.90;;;4.20;99.90;;;;;;5085044;28;20084;-80
2022/04/01 07:04:43;;;;;;;1.55;0.80;;;4.20;99.90;;;;;;5081752;28;20123;-81
2022/04/01 07:07:09;;;;;;;2.28;0.70;;;4.20;99.90;;;;;;5103399;28;20031;-79
2022/04/01 07:09:37;;;;;;;1.58;0.70;;;4.30;99.90;;;;;;5107789;28;20055;-80
2022/04/01 07:12:04;;;;;;;2.80;1.00;;;4.30;99.90;;;;;;5083580;28;20028;-78
2022/04/01 07:14:31;;;;;;;2.45;0.95;;;4.20;99.90;;;;;;5093806;28;20079;-79
2022/04/01 07:16:58;;;;;;;0.68;0.68;;;4.30;99.90;;;;;;5090538;28;20024;-80
2022/04/01 07:19:24;;;;;;;2.78;0.65;;;4.30;99.90;;;;;;5091607;28;20040;-80
2022/04/01 07:21:50;;;;;;;1.40;0.77;;;4.20;99.90;;;;;;5088301;28;20021;-80
2022/04/01 07:24:16;;;;;;;0.93;0.60;;;4.20;99.90;;;;;;5094450;28;20025;-80
2022/04/01 07:26:44;;;;;;;0.80;0.80;;;4.20;99.90;;;;;;5113992;28;20047;-79
2022/04/01 07:29:11;;;;;;;0.60;0.52;;;4.10;99.90;;;;;;5114489;28;20034;-80
2022/04/01 07:34:40;;;;;;;1.00;0.90;;;4.20;99.90;;;;;;5115101;28;20053;-80
2022/04/01 07:37:08;;;;;;;0.73;0.63;;;4.30;99.90;;;;;;5097936;28;20103;-79
2022/04/01 07:39:34;;;;;;;0.90;0.50;;;4.40;99.90;;;;;;5095439;28;20020;-79
2022/04/01 07:42:00;;;;;;;0.55;0.55;;;4.40;99.90;;;;;;5111330;28;20032;-79
2022/04/01 07:44:26;;;;;;;1.08;0.70;;;4.40;99.90;;;;;;5086696;28;20024;-78
2022/04/01 07:46:52;;;;;;;1.85;0.80;;;4.40;99.90;;;;;;5112111;28;20095;-79
2022/04/01 07:49:18;;;;;;;0.77;0.75;;;4.60;99.90;;;;;;5110317;28;20051;-79
2022/04/01 07:51:45;;;;;;;0.82;0.55;;;4.70;99.90;;;;;;5104497;28;20031;-81
2022/04/01 07:54:15;;;;;;;1.52;0.80;;;4.70;99.90;;;;;;5104378;28;20032;-80
2022/04/01 07:56:41;;;;;;;1.05;0.52;;;4.70;99.90;;;;;;5086540;28;20074;-79
2022/04/01 07:59:09;;;;;;;1.05;0.40;;;4.80;99.90;;;;;;5101608;28;20031;-80
2022/04/01 08:01:36;;;;;;;0.88;0.70;;;4.90;99.90;;;;;;5103897;28;20062;-79
2022/04/01 08:04:02;;;;;;;0.98;0.57;;;4.80;99.90;;;;;;5103892;28;20024;-79
2022/04/01 08:06:28;;;;;;;0.77;0.60;;;4.80;99.90;;;;;;5095529;28;20035;-80
2022/04/01 08:08:55;;;;;;;0.80;0.50;;;4.80;99.90;;;;;;5064966;28;20025;-80
2022/04/01 08:11:22;;;;;;;0.30;0.30;;;4.80;99.90;;;;;;5073183;28;20024;-81
2022/04/01 08:13:48;;;;;;;2.05;0.50;;;4.70;99.90;;;;;;5103509;28;20017;-79
2022/04/01 08:16:14;;;;;;;0.40;0.40;;;4.70;99.90;;;;;;5098628;28;20074;-79
2022/04/01 08:18:40;;;;;;;0.88;0.40;;;4.70;99.90;;;;;;5100603;28;20392;-80
2022/04/01 08:21:06;;;;;;;0.73;0.60;;;4.80;99.90;;;;;;5093460;28;20096;-79
2022/04/01 08:23:35;;;;;;;0.55;0.40;;;5.00;99.90;;;;;;5109793;28;20019;-80
2022/04/01 08:26:13;;;;;;;1.52;0.65;;;5.00;99.90;;;;;;5105114;28;20103;-79
2022/04/01 08:28:39;;;;;;;3.80;0.70;;;5.10;99.90;;;;;;5084896;28;20024;-82
2022/04/01 08:31:08;;;;;;;0.30;0.20;;;5.00;99.90;;;;;;5103542;28;20024;-81
2022/04/01 08:33:37;;;;;;;1.38;0.60;;;4.90;99.90;;;;;;5084808;28;20015;-81
2022/04/01 08:36:04;;;;;;;0.43;0.43;;;4.80;99.90;;;;;;5104019;28;20028;-80
2022/04/01 08:38:32;;;;;;;0.88;0.75;;;5.00;99.90;;;;;;5104717;28;20043;-80
2022/04/01 08:40:57;;;;;;;1.23;0.45;;;5.10;99.90;;;;;;5116665;28;20019;-79
2022/04/01 08:43:34;;;;;;;2.05;0.50;;;5.10;99.90;;;;;;5092199;28;20013;-78
2022/04/01 08:46:04;;;;;;;0.30;0.30;;;5.10;99.90;;;;;;5117743;28;20028;-79
2022/04/01 08:48:30;;;;;;;3.13;0.57;;;5.10;99.90;;;;;;5114537;28;20028;-79
2022/04/01 08:50:56;;;;;;;0.75;0.52;;;5.10;99.90;;;;;;5110540;28;20467;-80
2022/04/01 08:53:22;;;;;;;0.40;0.40;;;5.20;99.90;;;;;;5084578;28;20024;-79
2022/04/01 08:55:51;;;;;;;0.50;0.50;;;5.20;99.90;;;;;;5103765;28;20074;-81
2022/04/01 08:58:19;;;;;;;3.28;0.63;;;5.30;99.90;;;;;;5074933;28;20047;-81
2022/04/01 09:00:46;;;;;;;0.93;0.35;;;5.50;99.90;;;;;;5080794;28;20017;-80
2022/04/01 09:03:13;;;;;;;0.40;0.30;;;5.60;99.70;;;;;;5083201;28;20028;-80
2022/04/01 09:05:50;;;;;;;1.40;0.38;;;5.50;99.70;;;;;;5064522;28;20370;-80
2022/04/01 09:08:26;;;;;;;1.15;0.38;;;5.60;99.90;;;;;;5063451;28;20125;-80
2022/04/01 09:11:07;;;;;;;0.40;0.40;;;5.60;99.50;;;;;;5085244;28;20341;-80
2022/04/01 09:13:50;;;;;;;0.90;0.30;;;5.50;99.00;;;;;;5081063;28;20040;-80
2022/04/01 09:16:29;;;;;;;0.68;0.45;;;5.50;99.00;;;;;;5062921;28;20059;-79
2022/04/01 09:18:56;;;;;;;0.70;0.40;;;5.40;99.20;;;;;;5079945;28;20396;-80
2022/04/01 09:21:27;;;;;;;1.08;0.60;;;5.40;99.70;;;;;;5080719;28;20060;-79
2022/04/01 09:23:53;;;;;;;2.00;1.20;;;5.40;99.90;;;;;;5080255;28;20021;-80
2022/04/01 09:26:21;;;;;;;3.35;3.00;;;5.50;99.90;;;;;;5073516;28;20484;-80
2022/04/01 09:28:49;;;;;;;5.80;5.35;;;5.60;99.50;;;;;;5084842;28;20043;-80
2022/04/01 09:31:15;;;;;;;6.72;2.30;;;5.70;99.80;;;;;;5082992;28;20058;-80
2022/04/01 09:33:48;;;;;;;2.15;1.77;;;5.70;97.80;;;;;;5100965;28;20024;-80
2022/04/01 09:36:24;;;;;;;0.55;0.40;;;5.70;98.60;;;;;;5073629;28;20031;-79
2022/04/01 09:39:00;;;;;;;1.08;0.50;;;5.70;98.30;;;;;;5081365;28;20035;-80
2022/04/01 09:41:34;;;;;;;1.30;0.30;;;5.70;98.60;;;;;;5089572;28;20011;-80
2022/04/01 09:44:08;;;;;;;0.35;0.35;;;5.70;98.30;;;;;;5094370;28;20024;-81
2022/04/01 09:46:47;;;;;;;0.35;0.35;;;5.70;98.70;;;;;;5079750;28;20036;-79
2022/04/01 09:49:14;;;;;;;1.60;0.68;;;5.70;97.90;;;;;;5081288;28;20055;-79
2022/04/01 09:51:44;;;;;;;2.30;0.90;;;5.60;98.10;;;;;;5080487;28;20058;-80
2022/04/01 09:54:11;;;;;;;3.05;2.75;;;5.60;98.70;;;;;;5071914;22;20045;-79
2022/04/01 09:56:47;;;;;;;4.35;3.75;;;5.40;98.40;;;;;;5037325;28;20037;-81
2022/04/01 09:59:15;;;;;;;3.95;3.60;;;5.30;97.90;;;;;;5038079;28;20081;-81
2022/04/01 10:01:43;;;;;;;19.90;15.48;;;5.10;98.80;;;;;;5037727;28;20018;-80
2022/04/01 10:04:10;;;;;;;81.60;43.67;;;5.00;99.90;;;;;;5037807;28;20089;-81
2022/04/01 10:06:37;;;;;;;53.72;30.17;;;5.00;99.90;;;;;;5037170;28;20527;-80
2022/04/01 10:09:07;;;;;;;47.88;29.05;;;5.00;99.90;;;;;;5036179;28;20061;-81
2022/04/01 10:11:35;;;;;;;23.45;14.05;;;5.10;99.90;;;;;;5021191;28;20029;-80
2022/04/01 10:14:16;;;;;;;23.88;17.05;;;5.30;99.70;;;;;;5050236;28;20034;-80
2022/04/01 10:16:45;;;;;;;13.57;9.15;;;5.30;99.80;;;;;;5052199;28;20075;-81
2022/04/01 10:19:21;;;;;;;8.43;5.75;;;5.40;98.80;;;;;;5054046;28;20045;-81
2022/04/01 10:21:46;;;;;;;5.28;3.85;;;5.30;99.40;;;;;;5029671;28;20037;-81
2022/04/01 10:24:27;;;;;;;4.07;2.90;;;5.20;99.20;;;;;;5040453;28;20047;-80
2022/04/01 10:27:15;;;;;;;3.25;2.70;;;5.10;99.20;;;;;;5040767;28;20048;-82
2022/04/01 10:29:44;;;;;;;1.73;1.63;;;5.00;99.80;;;;;;5040085;28;20033;-82
2022/04/01 10:32:41;;;;;;;1.60;0.80;;;5.00;99.90;;;;;;5033975;28;20048;-81
2022/04/01 10:35:19;;;;;;;5.22;3.00;;;5.10;99.90;;;;;;5013075;28;20230;-81
2022/04/01 10:37:45;;;;;;;14.45;7.05;;;5.00;99.90;;;;;;5040100;28;20464;-81
2022/04/01 10:40:17;;;;;;;12.63;7.03;;;5.10;99.90;;;;;;5032326;28;20233;-80
2022/04/01 10:42:45;;;;;;;14.57;7.20;;;5.10;99.30;;;;;;5032013;28;20097;-81
2022/04/01 10:45:17;;;;;;;11.93;6.72;;;5.00;98.80;;;;;;5044170;28;20048;-81
2022/04/01 10:53:51;;;;;;;2.22;1.40;;;4.80;99.90;;;;;;5042355;28;20068;-82
2022/04/01 10:56:21;;;;;;;1.80;1.55;;;4.90;99.90;;;;;;5024437;28;20029;-81
2022/04/01 10:59:13;;;;;;;2.55;1.00;;;4.90;99.90;;;;;;5040810;28;20049;-81
2022/04/01 11:01:40;;;;;;;1.50;1.13;;;4.90;99.90;;;;;;5020233;28;20034;-82
2022/04/01 11:04:12;;;;;;;2.22;1.45;;;4.80;99.90;;;;;;5023785;28;20029;-81
2022/04/01 11:07:05;;;;;;;1.75;1.40;;;4.80;99.90;;;;;;5041373;28;20127;-81
2022/04/01 11:09:45;;;;;;;3.65;1.58;;;4.80;99.90;;;;;;5022611;28;20105;-83
2022/04/01 11:12:20;;;;;;;1.27;1.08;;;4.90;99.90;;;;;;5040411;28;20058;-81
2022/04/01 11:17:55;;;;;;;1.48;0.80;;;5.10;99.90;;;;;;5040243;28;20025;-81
2022/04/01 11:20:31;;;;;;;0.80;0.63;;;5.10;99.60;;;;;;5040397;28;20033;-81
2022/04/01 11:22:59;;;;;;;1.63;1.02;;;5.10;99.50;;;;;;5041167;28;20033;-80
2022/04/01 11:25:24;;;;;;;1.17;0.80;;;5.20;98.80;;;;;;5041767;28;20085;-82
2022/04/01 11:27:59;;;;;;;1.13;0.80;;;5.30;97.80;;;;;;5041161;28;20025;-81
2022/04/01 11:30:26;;;;;;;0.77;0.70;;;5.30;98.20;;;;;;5023561;28;20033;-82
2022/04/01 11:33:00;;;;;;;1.13;0.70;;;5.40;98.70;;;;;;5040961;28;20072;-82
2022/04/01 11:36:10;;;;;;;9.15;4.22;;;5.60;98.10;;;;;;5050114;28;20081;-83
2022/04/01 11:38:43;;;;;;;29.05;11.80;;;5.70;98.40;;;;;;5033025;28;20477;-80
2022/04/01 11:41:09;;;;;;;10.82;7.28;;;5.90;98.10;;;;;;5022599;28;20029;-85
2022/04/01 11:43:35;;;;;;;11.57;7.13;;;6.00;96.50;;;;;;5040780;28;20018;-80
2022/04/01 11:46:05;;;;;;;18.35;10.68;;;6.00;96.30;;;;;;5022978;28;20026;-81
2022/04/01 11:48:37;;;;;;;7.68;4.20;;;6.10;96.90;;;;;;5040850;28;20493;-81
2022/04/01 11:51:07;;;;;;;20.55;11.65;;;6.20;95.10;;;;;;5041756;28;20029;-82
2022/04/01 11:53:39;;;;;;;17.10;9.88;;;6.20;95.50;;;;;;5034289;28;20063;-82
2022/04/01 11:56:08;;;;;;;8.38;5.97;;;6.20;95.30;;;;;;5057144;28;20078;-83
2022/04/01 11:58:56;;;;;;;15.02;11.60;;;6.00;95.10;;;;;;5056701;28;20473;-80
2022/04/01 12:01:31;;;;;;;10.63;8.45;;;5.90;96.10;;;;;;5045134;28;20462;-81
2022/04/01 12:04:09;;;;;;;2.42;2.22;;;5.80;96.40;;;;;;5043114;28;20026;-81
2022/04/01 12:09:19;;;;;;;2.28;1.85;;;6.00;97.00;;;;;;5041882;28;20033;-82
2022/04/01 12:11:46;;;;;;;5.47;1.52;;;6.10;96.00;;;;;;5024554;28;20013;-81
2022/04/01 12:14:13;;;;;;;2.00;1.38;;;6.10;94.90;;;;;;5023469;28;20029;-81
2022/04/01 12:16:43;;;;;;;1.05;0.82;;;5.90;95.60;;;;;;5041675;28;20033;-81
2022/04/01 12:19:17;;;;;;;1.33;0.95;;;5.80;96.20;;;;;;5041568;28;20087;-81
2022/04/01 12:21:46;;;;;;;1.95;0.90;;;5.90;95.50;;;;;;5042589;28;20018;-82
2022/04/01 12:24:12;;;;;;;2.72;1.58;;;6.10;95.80;;;;;;5040589;28;20044;-81
2022/04/01 12:26:39;;;;;;;1.90;1.23;;;6.20;95.30;;;;;;5040210;28;20029;-81
2022/04/01 12:29:27;;;;;;;3.03;1.20;;;6.20;95.50;;;;;;5040259;28;20025;-83
2022/04/01 12:32:05;;;;;;;1.85;1.10;;;6.20;95.10;;;;;;5021973;28;20030;-83
2022/04/01 12:34:32;;;;;;;1.52;0.88;;;6.30;95.10;;;;;;5022136;28;20382;-82
2022/04/01 12:37:02;;;;;;;1.10;0.90;;;6.20;94.70;;;;;;5041487;28;20036;-82
2022/04/01 12:39:33;;;;;;;3.42;1.05;;;6.00;95.10;;;;;;5039710;28;20089;-81
2022/04/01 12:42:09;;;;;;;2.03;1.50;;;5.90;95.00;;;;;;5042297;28;20167;-80
2022/04/01 12:44:39;;;;;;;20.95;8.82;;;5.90;95.30;;;;;;5025206;28;20017;-81
2022/04/01 12:47:05;;;;;;;90.32;32.38;;;5.90;95.60;;;;;;5041832;28;20077;-83
2022/04/01 12:49:33;;;;;;;16.00;8.00;;;5.90;95.40;;;;;;5022680;28;20025;-81
2022/04/01 12:52:13;;;;;;;8.20;4.18;;;5.90;94.80;;;;;;5024892;28;20018;-82
2022/04/01 12:54:47;;;;;;;22.92;12.38;;;5.80;94.90;;;;;;5027327;28;20045;-82
2022/04/01 12:57:13;;;;;;;29.58;14.25;;;5.60;95.60;;;;;;5025493;28;20085;-82
2022/04/01 12:59:41;;;;;;;67.25;30.02;;;5.50;95.90;;;;;;5030496;28;20030;-82
2022/04/01 13:02:09;;;;;;;49.05;22.38;;;5.40;96.60;;;;;;5048563;28;20029;-82
2022/04/01 13:04:43;;;;;;;13.73;9.60;;;5.40;97.50;;;;;;5049794;28;20022;-82
2022/04/01 13:07:12;;;;;;;9.93;7.13;;;5.50;97.80;;;;;;5029448;28;20044;-82
2022/04/01 13:09:59;;;;;;;6.07;4.45;;;5.50;97.40;;;;;;5026097;28;20025;-82
2022/04/01 13:12:42;;;;;;;6.72;3.65;;;5.60;96.80;;;;;;5040247;28;20128;-83
2022/04/01 13:15:09;;;;;;;7.85;5.70;;;5.60;96.20;;;;;;5041526;28;20022;-81
2022/04/01 13:17:43;;;;;;;2.15;1.88;;;5.40;96.70;;;;;;5022689;28;20105;-81
2022/04/01 13:20:13;;;;;;;1.05;0.80;;;5.40;97.60;;;;;;5040732;28;20051;-82
2022/04/01 13:22:41;;;;;;;2.70;0.85;;;5.40;96.50;;;;;;5043004;28;20033;-82
2022/04/01 13:25:08;;;;;;;0.52;0.52;;;5.30;96.90;;;;;;5024897;28;20037;-81
2022/04/01 13:27:34;;;;;;;1.05;0.80;;;5.30;96.70;;;;;;5043077;28;20021;-81
2022/04/01 13:30:04;;;;;;;0.80;0.70;;;5.40;96.70;;;;;;5024649;28;20021;-82
2022/04/01 13:32:30;;;;;;;0.57;0.57;;;5.40;95.60;;;;;;5041034;28;20025;-82